Time;durP1;ratioP1;P1;durP2;ratioP2;P2;SDS_P1;SDS_P2;PMS_P1;PMS_P2;Temp;Humidity;BMP_temperature;BMP_pressure;BME280_temperature;BME280_humidity;BME280_pressure;Samples;Min_cycle;Max_cycle;Signal;HPM_P1;HPM_P2
2022/08/17 00:00:22;;;;;;;31.93;28.53;;;;;;;;;;5072681;28;20813;-84
2022/08/17 00:02:58;;;;;;;32.72;29.42;;;;;;;;;;5099138;28;20434;-84
2022/08/17 00:05:25;;;;;;;33.38;29.88;;;;;;;;;;5071891;28;20419;-83
2022/08/17 00:07:52;;;;;;;32.00;28.70;;;;;;;;;;5072777;28;20431;-82
2022/08/17 00:10:20;;;;;;;32.60;29.20;;;;;;;;;;5070667;28;20408;-83
2022/08/17 00:12:46;;;;;;;34.85;31.15;;;;;;;;;;5069866;28;20948;-83
2022/08/17 00:15:13;;;;;;;32.60;29.05;;;;;;;;;;5068438;28;20420;-84
2022/08/17 00:17:40;;;;;;;33.08;29.67;;;;;;;;;;5067660;28;20431;-81
2022/08/17 00:20:07;;;;;;;33.33;29.92;;;;;;;;;;5069956;28;20918;-85
2022/08/17 00:22:35;;;;;;;34.58;30.98;;;;;;;;;;5067860;28;20439;-85
2022/08/17 00:25:02;;;;;;;33.37;29.73;;;;;;;;;;5060832;28;20415;-85
2022/08/17 00:27:30;;;;;;;32.17;28.40;;;;;;;;;;5062062;28;20427;-84
2022/08/17 00:29:56;;;;;;;34.58;30.77;;;;;;;;;;5068399;28;20435;-84
2022/08/17 00:32:22;;;;;;;34.45;30.85;;;;;;;;;;5069559;28;20424;-86
2022/08/17 00:34:49;;;;;;;33.88;29.90;;;;;;;;;;5067621;28;20431;-85
2022/08/17 00:37:15;;;;;;;34.70;31.10;;;;;;;;;;5068548;28;20434;-84
2022/08/17 00:39:42;;;;;;;36.13;32.17;;;;;;;;;;5072216;28;20423;-83
2022/08/17 00:42:12;;;;;;;34.55;30.95;;;;;;;;;;5069089;28;20940;-85
2022/08/17 00:44:40;;;;;;;36.55;32.75;;;;;;;;;;5071067;28;20435;-85
2022/08/17 00:47:07;;;;;;;35.33;31.63;;;;;;;;;;5069109;28;20428;-84
2022/08/17 00:49:34;;;;;;;36.95;32.85;;;;;;;;;;5099720;28;20424;-85
2022/08/17 00:52:05;;;;;;;37.37;33.33;;;;;;;;;;5068786;28;20430;-84
2022/08/17 00:54:34;;;;;;;38.15;33.83;;;;;;;;;;5065141;28;20507;-84
2022/08/17 00:57:04;;;;;;;39.85;34.92;;;;;;;;;;5072704;28;20435;-84
2022/08/17 00:59:33;;;;;;;38.33;34.13;;;;;;;;;;5071154;28;20956;-83
2022/08/17 01:02:02;;;;;;;40.10;35.70;;;;;;;;;;5069010;28;20946;-82
2022/08/17 01:04:29;;;;;;;40.45;35.70;;;;;;;;;;5068360;28;20434;-83
2022/08/17 01:06:56;;;;;;;41.97;37.38;;;;;;;;;;5068544;28;20484;-82
2022/08/17 01:09:23;;;;;;;42.95;38.05;;;;;;;;;;5067723;28;20431;-81
2022/08/17 01:11:51;;;;;;;41.95;37.47;;;;;;;;;;5068312;28;20782;-84
2022/08/17 01:14:18;;;;;;;40.25;35.85;;;;;;;;;;5070446;28;20470;-83
2022/08/17 01:16:45;;;;;;;41.33;36.95;;;;;;;;;;5069587;28;20473;-83
2022/08/17 01:19:14;;;;;;;40.70;36.30;;;;;;;;;;5073154;28;20425;-84
2022/08/17 01:21:44;;;;;;;41.75;36.28;;;;;;;;;;5075462;28;20934;-84
2022/08/17 01:24:12;;;;;;;40.90;36.50;;;;;;;;;;5072034;28;20853;-85
2022/08/17 01:26:39;;;;;;;38.23;34.03;;;;;;;;;;5073135;28;20427;-84
2022/08/17 01:29:06;;;;;;;40.50;34.60;;;;;;;;;;5073536;28;20427;-84
2022/08/17 01:31:37;;;;;;;36.00;32.33;;;;;;;;;;5073804;28;20506;-83
2022/08/17 01:34:05;;;;;;;36.70;32.75;;;;;;;;;;5073142;28;20430;-83
2022/08/17 01:36:32;;;;;;;37.15;33.10;;;;;;;;;;5071197;28;20463;-84
2022/08/17 01:38:58;;;;;;;35.85;32.05;;;;;;;;;;5072946;28;21015;-83
2022/08/17 01:41:27;;;;;;;36.60;32.65;;;;;;;;;;5073352;28;20965;-84
2022/08/17 01:43:56;;;;;;;36.85;32.85;;;;;;;;;;5068493;28;20423;-84
2022/08/17 01:46:25;;;;;;;34.28;30.70;;;;;;;;;;5073048;28;20434;-84
2022/08/17 01:48:52;;;;;;;37.75;33.65;;;;;;;;;;5077229;28;20431;-84
2022/08/17 01:51:19;;;;;;;37.60;33.50;;;;;;;;;;5071990;28;20437;-84
2022/08/17 01:53:48;;;;;;;37.00;32.63;;;;;;;;;;5074747;28;20435;-82
2022/08/17 01:56:17;;;;;;;37.22;32.03;;;;;;;;;;5072758;28;20427;-82
2022/08/17 01:58:45;;;;;;;35.22;31.10;;;;;;;;;;5072772;28;20419;-84
2022/08/17 02:01:13;;;;;;;34.08;30.55;;;;;;;;;;5073575;28;20427;-83
2022/08/17 02:03:40;;;;;;;35.75;30.42;;;;;;;;;;5071123;28;20435;-83
2022/08/17 02:06:07;;;;;;;33.75;30.35;;;;;;;;;;5103561;28;20990;-84
2022/08/17 02:08:34;;;;;;;32.63;28.55;;;;;;;;;;5075766;28;20419;-83
2022/08/17 02:11:01;;;;;;;36.33;32.42;;;;;;;;;;5075449;28;20419;-83
2022/08/17 02:13:28;;;;;;;36.08;32.08;;;;;;;;;;5067889;28;20497;-84
2022/08/17 02:15:57;;;;;;;35.72;31.92;;;;;;;;;;5073101;28;20424;-84
2022/08/17 02:18:24;;;;;;;33.58;29.98;;;;;;;;;;5074364;28;20423;-84
2022/08/17 02:20:51;;;;;;;33.95;30.33;;;;;;;;;;5071947;28;20800;-83
2022/08/17 02:23:17;;;;;;;33.17;29.05;;;;;;;;;;5073382;28;20462;-84
2022/08/17 02:25:46;;;;;;;32.72;29.33;;;;;;;;;;5067193;28;20419;-83
2022/08/17 02:28:13;;;;;;;34.20;30.55;;;;;;;;;;5076123;28;20439;-83
2022/08/17 02:30:39;;;;;;;32.72;29.20;;;;;;;;;;5067267;28;20439;-84
2022/08/17 02:33:08;;;;;;;34.03;29.60;;;;;;;;;;5077921;28;20434;-85
2022/08/17 02:35:34;;;;;;;34.33;29.93;;;;;;;;;;5074541;28;20423;-84
2022/08/17 02:38:02;;;;;;;34.80;31.13;;;;;;;;;;5074756;28;20441;-83
2022/08/17 02:40:29;;;;;;;36.95;31.15;;;;;;;;;;5076827;28;20851;-84
2022/08/17 02:42:57;;;;;;;34.67;30.30;;;;;;;;;;5070920;28;20439;-83
2022/08/17 02:45:24;;;;;;;34.83;31.02;;;;;;;;;;5069134;28;20431;-85
2022/08/17 02:47:50;;;;;;;33.67;30.08;;;;;;;;;;5073139;28;20431;-85
2022/08/17 02:50:20;;;;;;;39.75;31.45;;;;;;;;;;5070787;28;20869;-82
2022/08/17 02:52:47;;;;;;;36.05;32.13;;;;;;;;;;5073004;28;20908;-83
2022/08/17 02:55:15;;;;;;;35.78;31.13;;;;;;;;;;5070871;28;20439;-83
2022/08/17 02:57:41;;;;;;;36.30;31.80;;;;;;;;;;5071574;28;20431;-82
2022/08/17 03:00:12;;;;;;;38.78;32.88;;;;;;;;;;5070470;28;20420;-82
2022/08/17 03:02:38;;;;;;;36.30;31.85;;;;;;;;;;5073076;28;20987;-83
2022/08/17 03:05:06;;;;;;;38.15;33.45;;;;;;;;;;5076258;28;20869;-85
2022/08/17 03:07:33;;;;;;;41.20;34.40;;;;;;;;;;5070767;28;20507;-83
2022/08/17 03:10:00;;;;;;;36.30;32.40;;;;;;;;;;5106684;28;20435;-83
2022/08/17 03:12:31;;;;;;;40.05;33.40;;;;;;;;;;5066378;28;20427;-85
2022/08/17 03:14:57;;;;;;;41.17;33.05;;;;;;;;;;5073953;28;20438;-83
2022/08/17 03:17:24;;;;;;;36.92;32.92;;;;;;;;;;5051358;28;20452;-85
2022/08/17 03:19:51;;;;;;;36.03;31.38;;;;;;;;;;5077594;28;20863;-81
2022/08/17 03:22:17;;;;;;;40.50;36.38;;;;;;;;;;5079447;28;20432;-84
2022/08/17 03:24:45;;;;;;;41.70;37.17;;;;;;;;;;5068508;28;20423;-83
2022/08/17 03:27:11;;;;;;;45.97;38.30;;;;;;;;;;5077683;28;20942;-84
2022/08/17 03:29:37;;;;;;;47.97;39.80;;;;;;;;;;5077245;28;20434;-84
2022/08/17 03:32:11;;;;;;;48.65;39.90;;;;;;;;;;5078583;28;20427;-83
2022/08/17 03:34:37;;;;;;;46.70;41.33;;;;;;;;;;5105116;28;20546;-83
2022/08/17 03:37:04;;;;;;;49.75;38.83;;;;;;;;;;5072213;28;20427;-83
2022/08/17 03:39:30;;;;;;;48.85;39.75;;;;;;;;;;5073431;28;20924;-84
2022/08/17 03:42:06;;;;;;;47.92;37.20;;;;;;;;;;5069958;28;20429;-82
2022/08/17 03:44:34;;;;;;;41.60;36.60;;;;;;;;;;5071226;28;20461;-83
2022/08/17 03:57:57;;;;;;;54.25;41.60;;;;;;;;;;5072021;28;20422;-81
2022/08/17 04:00:26;;;;;;;48.40;41.92;;;;;;;;;;5072244;28;20436;-82
2022/08/17 04:02:52;;;;;;;51.90;41.97;;;;;;;;;;5072764;28;20423;-81
2022/08/17 04:05:19;;;;;;;53.15;44.15;;;;;;;;;;5074220;28;20837;-83
2022/08/17 04:07:47;;;;;;;55.07;43.07;;;;;;;;;;5077020;28;20423;-82
2022/08/17 04:10:14;;;;;;;54.83;42.47;;;;;;;;;;5073205;28;20419;-83
2022/08/17 04:12:46;;;;;;;53.03;44.30;;;;;;;;;;5052370;28;20427;-84
2022/08/17 04:15:15;;;;;;;54.15;42.38;;;;;;;;;;5073111;28;20416;-83
2022/08/17 04:17:43;;;;;;;59.00;45.97;;;;;;;;;;5077878;28;20432;-83
2022/08/17 04:20:11;;;;;;;54.10;44.13;;;;;;;;;;5054739;28;20405;-84
2022/08/17 04:22:37;;;;;;;51.77;41.10;;;;;;;;;;5070440;28;20415;-84
2022/08/17 04:25:06;;;;;;;50.03;41.70;;;;;;;;;;5088424;28;20419;-83
2022/08/17 04:27:34;;;;;;;53.70;42.75;;;;;;;;;;5069076;28;20865;-83
2022/08/17 04:30:00;;;;;;;50.70;41.90;;;;;;;;;;5073000;28;20522;-85
2022/08/17 04:32:28;;;;;;;61.40;48.27;;;;;;;;;;5062832;28;20427;-82
2022/08/17 04:34:55;;;;;;;55.17;44.53;;;;;;;;;;5071724;28;20488;-83
2022/08/17 04:37:22;;;;;;;56.88;46.10;;;;;;;;;;5071900;28;20795;-82
2022/08/17 04:42:05;;;;;;;51.28;42.80;;;;;;;;;;5069341;28;20431;-84
2022/08/17 04:42:34;;;;;;;52.13;43.33;;;;;;;;;;5071329;28;20455;-85
2022/08/17 04:45:02;;;;;;;54.23;45.93;;;;;;;;;;5069456;28;20457;-83
2022/08/17 04:47:30;;;;;;;58.83;47.50;;;;;;;;;;5071945;28;20549;-83
2022/08/17 04:50:00;;;;;;;53.83;42.30;;;;;;;;;;5068416;28;20986;-83
2022/08/17 04:52:27;;;;;;;51.28;42.40;;;;;;;;;;5072748;28;20435;-82
2022/08/17 04:54:53;;;;;;;61.05;46.40;;;;;;;;;;5071294;28;20423;-84
2022/08/17 04:57:19;;;;;;;57.17;46.45;;;;;;;;;;5075558;28;20428;-82
2022/08/17 04:59:46;;;;;;;63.22;49.08;;;;;;;;;;5051429;28;20453;-84
2022/08/17 05:02:13;;;;;;;55.00;45.55;;;;;;;;;;5072290;28;20431;-84
2022/08/17 05:04:41;;;;;;;62.72;50.50;;;;;;;;;;5073744;28;20432;-84
2022/08/17 05:07:07;;;;;;;63.78;51.17;;;;;;;;;;5071845;28;20429;-84
2022/08/17 05:09:34;;;;;;;68.20;51.42;;;;;;;;;;5075200;28;20431;-84
2022/08/17 05:12:01;;;;;;;58.63;46.03;;;;;;;;;;5075500;28;20439;-84
2022/08/17 05:14:27;;;;;;;63.25;48.25;;;;;;;;;;5077677;28;20407;-84
2022/08/17 05:16:54;;;;;;;68.00;52.25;;;;;;;;;;5064644;28;20416;-82
2022/08/17 05:19:20;;;;;;;61.38;51.70;;;;;;;;;;5070867;28;20427;-82
2022/08/17 05:21:49;;;;;;;62.47;50.70;;;;;;;;;;5070578;28;20969;-82
2022/08/17 05:24:16;;;;;;;76.93;54.17;;;;;;;;;;5071418;28;20907;-84
2022/08/17 05:26:42;;;;;;;64.30;50.17;;;;;;;;;;5067986;28;20423;-83
2022/08/17 05:29:08;;;;;;;72.00;55.43;;;;;;;;;;5104195;28;20442;-83
2022/08/17 05:31:35;;;;;;;77.20;57.58;;;;;;;;;;5067869;28;20516;-84
2022/08/17 05:34:02;;;;;;;68.80;52.88;;;;;;;;;;5072503;28;20427;-83
2022/08/17 05:36:29;;;;;;;76.40;58.70;;;;;;;;;;5069161;28;20418;-84
2022/08/17 05:38:57;;;;;;;74.77;56.67;;;;;;;;;;5068254;28;20420;-84
2022/08/17 05:41:23;;;;;;;72.50;55.53;;;;;;;;;;5061598;28;20459;-84
2022/08/17 05:43:50;;;;;;;78.72;59.03;;;;;;;;;;5068164;28;20447;-83
2022/08/17 05:46:20;;;;;;;74.63;59.00;;;;;;;;;;5065504;28;20424;-83
2022/08/17 05:48:48;;;;;;;80.93;60.03;;;;;;;;;;5067315;28;20439;-82
2022/08/17 05:51:21;;;;;;;79.40;58.70;;;;;;;;;;5068096;28;20416;-82
2022/08/17 05:53:52;;;;;;;71.53;56.30;;;;;;;;;;5071142;28;20423;-82
2022/08/17 05:56:27;;;;;;;75.07;58.03;;;;;;;;;;5059370;28;20416;-81
2022/08/17 05:58:57;;;;;;;72.72;55.63;;;;;;;;;;5069722;28;20419;-81
2022/08/17 06:01:27;;;;;;;73.63;56.90;;;;;;;;;;5069294;28;20416;-81
2022/08/17 06:03:59;;;;;;;72.18;57.38;;;;;;;;;;5069523;28;20431;-81
2022/08/17 06:06:33;;;;;;;73.55;57.20;;;;;;;;;;5070416;28;20901;-84
2022/08/17 06:09:05;;;;;;;77.97;59.25;;;;;;;;;;5055205;28;20488;-82
2022/08/17 06:11:37;;;;;;;68.45;55.83;;;;;;;;;;5072977;28;20423;-82
2022/08/17 06:14:09;;;;;;;68.73;54.70;;;;;;;;;;5073389;28;20415;-84
2022/08/17 06:16:38;;;;;;;72.07;55.78;;;;;;;;;;5073179;28;20425;-84
2022/08/17 06:19:09;;;;;;;74.00;58.10;;;;;;;;;;5074817;28;20419;-84
2022/08/17 06:21:38;;;;;;;71.17;55.50;;;;;;;;;;5071372;28;20423;-84
2022/08/17 06:24:06;;;;;;;68.63;54.00;;;;;;;;;;5072361;28;20415;-83
2022/08/17 06:26:36;;;;;;;74.33;54.10;;;;;;;;;;5102519;28;20797;-82
2022/08/17 06:29:07;;;;;;;71.03;55.37;;;;;;;;;;5074219;28;20418;-82
2022/08/17 06:31:37;;;;;;;76.35;59.38;;;;;;;;;;5071200;28;20411;-82
2022/08/17 06:34:06;;;;;;;72.87;57.03;;;;;;;;;;5074071;28;20425;-82
2022/08/17 06:36:39;;;;;;;73.50;58.80;;;;;;;;;;5073014;28;20457;-82
2022/08/17 06:39:17;;;;;;;74.00;58.90;;;;;;;;;;5072800;28;20415;-83
2022/08/17 06:41:50;;;;;;;69.60;55.67;;;;;;;;;;5065181;28;20936;-82
2022/08/17 06:44:21;;;;;;;75.73;59.63;;;;;;;;;;5072635;28;20435;-84
2022/08/17 06:46:50;;;;;;;72.43;58.30;;;;;;;;;;5073180;28;20416;-83
2022/08/17 06:49:20;;;;;;;70.18;57.53;;;;;;;;;;5070046;28;20816;-84
2022/08/17 06:51:49;;;;;;;70.22;58.33;;;;;;;;;;5073750;28;20458;-82
2022/08/17 06:54:18;;;;;;;68.00;56.85;;;;;;;;;;5069989;28;20430;-83
2022/08/17 06:56:52;;;;;;;74.20;59.90;;;;;;;;;;5069054;28;20419;-83
2022/08/17 06:59:29;;;;;;;75.75;59.60;;;;;;;;;;5071319;28;20477;-83
2022/08/17 07:01:56;;;;;;;74.17;59.43;;;;;;;;;;5070534;28;20424;-82
2022/08/17 07:04:24;;;;;;;68.50;58.10;;;;;;;;;;5070150;28;20508;-83
2022/08/17 07:06:52;;;;;;;74.50;62.22;;;;;;;;;;5071911;28;20473;-83
2022/08/17 07:09:22;;;;;;;72.35;59.30;;;;;;;;;;5067237;28;20432;-84
2022/08/17 07:11:52;;;;;;;68.55;56.78;;;;;;;;;;5068390;28;20416;-83
2022/08/17 07:14:35;;;;;;;74.90;61.20;;;;;;;;;;5072100;28;20805;-84
2022/08/17 07:17:03;;;;;;;68.32;56.63;;;;;;;;;;5071133;28;20879;-83
2022/08/17 07:19:31;;;;;;;69.45;56.00;;;;;;;;;;5071665;28;20408;-83
2022/08/17 07:22:02;;;;;;;64.00;55.85;;;;;;;;;;5068368;28;20427;-84
2022/08/17 07:24:31;;;;;;;61.47;53.08;;;;;;;;;;5071952;28;20427;-83
2022/08/17 07:27:08;;;;;;;61.67;50.33;;;;;;;;;;5068538;28;21060;-83
2022/08/17 07:29:37;;;;;;;57.40;49.10;;;;;;;;;;5069862;28;20419;-84
2022/08/17 07:32:03;;;;;;;55.73;48.67;;;;;;;;;;5068998;28;20461;-83
2022/08/17 07:34:30;;;;;;;53.15;47.20;;;;;;;;;;5062301;28;20412;-83
2022/08/17 07:37:01;;;;;;;51.50;45.67;;;;;;;;;;5068355;28;21199;-84
2022/08/17 07:39:28;;;;;;;50.22;43.97;;;;;;;;;;5070737;28;20432;-84
2022/08/17 07:42:01;;;;;;;48.95;43.47;;;;;;;;;;5067793;28;20428;-83
2022/08/17 07:44:29;;;;;;;47.90;42.80;;;;;;;;;;5071926;28;20411;-84
2022/08/17 07:49:40;;;;;;;41.28;36.97;;;;;;;;;;5071248;28;20403;-83
2022/08/17 07:52:08;;;;;;;41.33;36.88;;;;;;;;;;5069728;28;20420;-84
2022/08/17 07:54:36;;;;;;;39.75;35.65;;;;;;;;;;5070825;28;20442;-83
2022/08/17 07:57:08;;;;;;;38.92;34.75;;;;;;;;;;5067290;28;20427;-84
2022/08/17 07:59:37;;;;;;;34.83;31.38;;;;;;;;;;5070566;28;20522;-84
2022/08/17 08:02:24;;;;;;;34.33;30.98;;;;;;;;;;5071645;28;20423;-83
2022/08/17 08:05:00;;;;;;;36.35;32.45;;;;;;;;;;5069973;28;20434;-82
2022/08/17 08:07:29;;;;;;;34.88;31.30;;;;;;;;;;5068507;28;20493;-82
2022/08/17 08:10:04;;;;;;;37.00;33.40;;;;;;;;;;5071660;28;20415;-83
2022/08/17 08:12:33;;;;;;;35.53;31.90;;;;;;;;;;5068865;28;20439;-83
2022/08/17 08:15:02;;;;;;;33.05;29.75;;;;;;;;;;5068191;28;20423;-82
2022/08/17 08:17:34;;;;;;;31.10;28.10;;;;;;;;;;5070251;28;20431;-82
2022/08/17 08:20:02;;;;;;;32.07;28.87;;;;;;;;;;5068144;28;20889;-83
2022/08/17 08:22:33;;;;;;;32.08;28.92;;;;;;;;;;5071713;28;20424;-82
2022/08/17 08:25:04;;;;;;;32.38;29.15;;;;;;;;;;5071786;28;20412;-83
2022/08/17 08:27:35;;;;;;;30.30;27.40;;;;;;;;;;5069247;28;20910;-83
2022/08/17 08:30:06;;;;;;;29.67;26.70;;;;;;;;;;5070027;28;20855;-83
2022/08/17 08:32:41;;;;;;;28.50;25.70;;;;;;;;;;5071640;28;20409;-84
2022/08/17 08:35:11;;;;;;;27.75;24.95;;;;;;;;;;5071139;28;20444;-82
2022/08/17 08:37:45;;;;;;;26.90;24.17;;;;;;;;;;5071196;28;20435;-84
2022/08/17 08:40:29;;;;;;;28.63;25.77;;;;;;;;;;5070082;28;20839;-82
2022/08/17 08:43:02;;;;;;;27.02;24.45;;;;;;;;;;5071006;28;20409;-83
2022/08/17 08:45:38;;;;;;;25.90;23.60;;;;;;;;;;5070332;28;20414;-83
2022/08/17 08:48:15;;;;;;;25.95;23.23;;;;;;;;;;5070120;28;20420;-82
2022/08/17 08:50:45;;;;;;;24.02;21.90;;;;;;;;;;5099867;28;20412;-83
2022/08/17 08:53:22;;;;;;;24.00;21.40;;;;;;;;;;5071518;28;20525;-81
2022/08/17 08:55:51;;;;;;;23.50;21.20;;;;;;;;;;5068576;28;20493;-81
2022/08/17 08:58:22;;;;;;;23.38;21.27;;;;;;;;;;5069571;28;20442;-81
2022/08/17 09:00:52;;;;;;;22.50;20.23;;;;;;;;;;5069438;28;20457;-81
2022/08/17 09:03:48;;;;;;;19.20;17.40;;;;;;;;;;5071347;28;20414;-82
2022/08/17 09:06:22;;;;;;;17.55;15.95;;;;;;;;;;5006304;28;20451;-82
2022/08/17 09:08:54;;;;;;;16.65;15.05;;;;;;;;;;5059081;28;20441;-82
2022/08/17 09:11:24;;;;;;;20.42;18.63;;;;;;;;;;5069445;28;20427;-81
2022/08/17 09:13:55;;;;;;;19.00;17.27;;;;;;;;;;5072287;28;20422;-81
2022/08/17 09:16:28;;;;;;;18.20;16.60;;;;;;;;;;5069946;28;20459;-82
2022/08/17 09:18:57;;;;;;;17.95;16.25;;;;;;;;;;5069760;28;20436;-83
2022/08/17 09:21:25;;;;;;;17.52;15.93;;;;;;;;;;5067094;28;20426;-83
2022/08/17 09:23:58;;;;;;;18.10;16.58;;;;;;;;;;5101992;28;20808;-83
2022/08/17 09:26:29;;;;;;;19.55;17.85;;;;;;;;;;5098016;28;20436;-83
2022/08/17 09:28:59;;;;;;;19.95;18.15;;;;;;;;;;5070443;28;20423;-83
2022/08/17 09:31:34;;;;;;;20.23;18.38;;;;;;;;;;5062647;28;20416;-82
2022/08/17 09:34:02;;;;;;;18.90;17.13;;;;;;;;;;5071498;28;20419;-83
2022/08/17 09:36:31;;;;;;;16.73;15.32;;;;;;;;;;5068783;28;21047;-82
2022/08/17 09:39:00;;;;;;;15.52;14.13;;;;;;;;;;5072990;28;20457;-82
2022/08/17 09:41:31;;;;;;;16.77;15.07;;;;;;;;;;5072449;28;20423;-83
2022/08/17 09:44:00;;;;;;;16.80;15.20;;;;;;;;;;5066487;28;20408;-82
2022/08/17 09:46:30;;;;;;;19.10;17.10;;;;;;;;;;5073100;28;20419;-81
2022/08/17 09:48:58;;;;;;;20.17;18.23;;;;;;;;;;5072977;28;20424;-81
2022/08/17 09:51:30;;;;;;;20.08;17.98;;;;;;;;;;5073824;28;20860;-83
2022/08/17 09:53:57;;;;;;;15.88;14.20;;;;;;;;;;5074852;28;20471;-83
2022/08/17 09:56:30;;;;;;;16.50;14.90;;;;;;;;;;5071482;28;20797;-81
2022/08/17 09:59:15;;;;;;;17.60;16.00;;;;;;;;;;5072643;28;20457;-81
2022/08/17 10:01:57;;;;;;;17.90;16.20;;;;;;;;;;5074421;28;20416;-84
2022/08/17 10:04:32;;;;;;;18.98;17.08;;;;;;;;;;5074076;28;20418;-82
2022/08/17 10:07:03;;;;;;;18.70;16.70;;;;;;;;;;5073536;28;20423;-83
2022/08/17 10:09:37;;;;;;;18.27;15.75;;;;;;;;;;5074716;28;20416;-82
2022/08/17 10:12:20;;;;;;;20.17;18.27;;;;;;;;;;5068685;28;20435;-84
2022/08/17 10:14:55;;;;;;;21.77;19.48;;;;;;;;;;5073565;28;21096;-83
2022/08/17 10:17:28;;;;;;;20.00;18.10;;;;;;;;;;5073594;28;20412;-83
2022/08/17 10:19:59;;;;;;;19.23;17.42;;;;;;;;;;5074129;28;20443;-84
2022/08/17 10:27:58;;;;;;;23.52;21.27;;;;;;;;;;5066800;28;20426;-83
2022/08/17 10:30:26;;;;;;;19.13;17.35;;;;;;;;;;5070512;28;20422;-82
2022/08/17 10:32:54;;;;;;;20.55;18.75;;;;;;;;;;5072423;28;20438;-83
2022/08/17 10:35:28;;;;;;;19.60;17.90;;;;;;;;;;5073149;28;20412;-84
2022/08/17 10:38:14;;;;;;;20.10;17.77;;;;;;;;;;5064164;28;20423;-82
2022/08/17 10:40:45;;;;;;;20.08;18.13;;;;;;;;;;5071900;28;20465;-83
2022/08/17 10:43:20;;;;;;;19.00;17.30;;;;;;;;;;5071922;28;20515;-83
2022/08/17 10:45:48;;;;;;;21.25;19.33;;;;;;;;;;5071741;28;20418;-81
2022/08/17 10:48:25;;;;;;;17.10;15.60;;;;;;;;;;5073450;28;20928;-83
2022/08/17 10:51:02;;;;;;;18.85;17.25;;;;;;;;;;5062205;28;20411;-84
2022/08/17 10:53:48;;;;;;;21.70;19.80;;;;;;;;;;5074045;28;20913;-82
2022/08/17 10:56:22;;;;;;;18.80;17.00;;;;;;;;;;5070720;28;20912;-82
2022/08/17 10:58:49;;;;;;;18.45;16.70;;;;;;;;;;5073597;28;20527;-83
2022/08/17 11:01:16;;;;;;;16.60;14.90;;;;;;;;;;5063480;28;20416;-83
2022/08/17 11:03:53;;;;;;;17.27;15.67;;;;;;;;;;5069408;28;20459;-83
2022/08/17 11:06:43;;;;;;;17.77;16.17;;;;;;;;;;5073825;28;20420;-82
2022/08/17 11:09:26;;;;;;;17.95;16.40;;;;;;;;;;5073043;28;20432;-84
2022/08/17 11:12:07;;;;;;;17.30;15.80;;;;;;;;;;5071383;28;20419;-84
2022/08/17 11:14:40;;;;;;;16.70;15.13;;;;;;;;;;5073567;28;20510;-83
2022/08/17 11:17:14;;;;;;;15.50;14.20;;;;;;;;;;5072984;28;20767;-82
2022/08/17 11:20:04;;;;;;;16.50;15.10;;;;;;;;;;5069755;28;20439;-83
2022/08/17 11:22:42;;;;;;;16.60;15.00;;;;;;;;;;5051101;28;20433;-83
2022/08/17 11:25:14;;;;;;;15.52;14.13;;;;;;;;;;5072608;28;20412;-84
2022/08/17 11:27:42;;;;;;;15.68;14.30;;;;;;;;;;5071176;28;20423;-82
2022/08/17 11:30:12;;;;;;;14.68;13.27;;;;;;;;;;5072325;28;20412;-82
2022/08/17 11:32:40;;;;;;;13.18;12.10;;;;;;;;;;5070309;28;20929;-84
2022/08/17 11:35:12;;;;;;;14.32;12.63;;;;;;;;;;5070078;28;20431;-85
2022/08/17 11:37:47;;;;;;;12.90;11.70;;;;;;;;;;5061795;28;20905;-81
2022/08/17 11:40:39;;;;;;;12.13;11.00;;;;;;;;;;5071570;28;20403;-84
2022/08/17 11:43:23;;;;;;;11.25;10.25;;;;;;;;;;5070986;28;20438;-83
2022/08/17 11:46:04;;;;;;;11.65;10.55;;;;;;;;;;5071544;28;20901;-82
2022/08/17 11:51:33;;;;;;;11.07;9.90;;;;;;;;;;5072011;28;20398;-83
2022/08/17 11:54:04;;;;;;;10.50;9.50;;;;;;;;;;5070927;28;20412;-82
2022/08/17 11:56:34;;;;;;;11.90;10.80;;;;;;;;;;5073221;28;20416;-83
2022/08/17 11:59:01;;;;;;;11.45;10.45;;;;;;;;;;5070268;28;20419;-83
2022/08/17 12:01:46;;;;;;;10.63;9.73;;;;;;;;;;5070719;28;20427;-82
2022/08/17 12:04:18;;;;;;;11.48;10.48;;;;;;;;;;5073096;28;20494;-85
2022/08/17 12:06:47;;;;;;;10.88;9.82;;;;;;;;;;5071624;28;20427;-83
2022/08/17 12:09:18;;;;;;;11.13;10.03;;;;;;;;;;5071781;28;20427;-84
2022/08/17 12:11:48;;;;;;;10.80;9.90;;;;;;;;;;5066313;28;20434;-83
2022/08/17 12:14:15;;;;;;;10.90;9.80;;;;;;;;;;5102903;28;20427;-84
2022/08/17 12:16:43;;;;;;;10.95;9.85;;;;;;;;;;5069755;28;20418;-83
2022/08/17 12:19:18;;;;;;;10.88;9.88;;;;;;;;;;5070714;28;20488;-83
2022/08/17 12:21:49;;;;;;;10.00;9.20;;;;;;;;;;5061707;28;20453;-82
2022/08/17 12:24:31;;;;;;;9.90;9.00;;;;;;;;;;5070857;28;20762;-84
2022/08/17 12:26:58;;;;;;;10.63;9.63;;;;;;;;;;5064290;28;21129;-83
2022/08/17 12:29:25;;;;;;;10.55;9.45;;;;;;;;;;5070458;28;20503;-84
2022/08/17 12:31:53;;;;;;;9.70;8.70;;;;;;;;;;5068966;28;20416;-85
2022/08/17 12:34:21;;;;;;;8.75;8.00;;;;;;;;;;5070220;28;20477;-83
2022/08/17 12:36:50;;;;;;;8.95;8.25;;;;;;;;;;5060185;28;20427;-82
2022/08/17 12:39:18;;;;;;;10.88;9.43;;;;;;;;;;5071714;28;20423;-83
2022/08/17 12:41:48;;;;;;;11.07;10.00;;;;;;;;;;5068422;28;20424;-82
2022/08/17 12:44:16;;;;;;;10.80;9.80;;;;;;;;;;5071195;28;20917;-82
2022/08/17 12:46:47;;;;;;;10.37;9.57;;;;;;;;;;5068127;28;20423;-82
2022/08/17 12:49:15;;;;;;;9.68;8.88;;;;;;;;;;5071568;28;20416;-83
2022/08/17 12:51:43;;;;;;;10.80;9.90;;;;;;;;;;5070413;28;20418;-83
2022/08/17 12:54:19;;;;;;;8.83;8.03;;;;;;;;;;5070000;28;20435;-84
2022/08/17 12:56:47;;;;;;;9.10;8.30;;;;;;;;;;5063354;28;20438;-83
2022/08/17 12:59:14;;;;;;;9.88;8.98;;;;;;;;;;5071251;28;20423;-82
2022/08/17 13:01:41;;;;;;;10.38;9.38;;;;;;;;;;5068823;28;20416;-83
2022/08/17 13:04:13;;;;;;;10.73;9.73;;;;;;;;;;5071836;28;20415;-81
2022/08/17 13:06:45;;;;;;;9.47;8.77;;;;;;;;;;5070022;28;20415;-84
2022/08/17 13:09:13;;;;;;;9.88;8.98;;;;;;;;;;5071159;28;20415;-83
2022/08/17 13:11:47;;;;;;;9.60;8.70;;;;;;;;;;5067955;28;20438;-83
2022/08/17 13:14:17;;;;;;;9.60;8.70;;;;;;;;;;5075152;28;20423;-83
2022/08/17 13:16:47;;;;;;;9.45;8.65;;;;;;;;;;5074520;28;20403;-82
2022/08/17 13:19:14;;;;;;;9.37;8.47;;;;;;;;;;5074313;28;20809;-83
2022/08/17 13:21:45;;;;;;;8.53;7.80;;;;;;;;;;5067384;28;20408;-83
2022/08/17 13:24:16;;;;;;;9.27;8.48;;;;;;;;;;5073064;28;20437;-83
2022/08/17 13:26:45;;;;;;;8.93;8.13;;;;;;;;;;5074133;28;20450;-84
2022/08/17 13:29:22;;;;;;;8.10;7.50;;;;;;;;;;5072212;28;20434;-84
2022/08/17 13:31:49;;;;;;;9.02;8.23;;;;;;;;;;5073690;28;20441;-83
2022/08/17 13:34:16;;;;;;;8.33;7.57;;;;;;;;;;5076047;28;20943;-81
2022/08/17 13:36:43;;;;;;;9.15;8.25;;;;;;;;;;5072807;28;20422;-81
2022/08/17 13:39:14;;;;;;;8.63;7.82;;;;;;;;;;5074966;28;20518;-84
2022/08/17 13:41:40;;;;;;;9.15;8.35;;;;;;;;;;5073605;28;20434;-83
2022/08/17 13:44:27;;;;;;;8.60;7.90;;;;;;;;;;5075362;28;20411;-83
2022/08/17 13:46:56;;;;;;;9.73;8.83;;;;;;;;;;5073275;28;20420;-83
2022/08/17 13:49:24;;;;;;;9.40;8.50;;;;;;;;;;5074145;28;20423;-82
2022/08/17 13:51:51;;;;;;;8.60;7.80;;;;;;;;;;5070636;28;20922;-82
2022/08/17 13:54:20;;;;;;;8.93;8.13;;;;;;;;;;5072633;28;20431;-83
2022/08/17 13:56:53;;;;;;;8.85;8.15;;;;;;;;;;5073953;28;20424;-83
2022/08/17 13:59:25;;;;;;;9.32;8.40;;;;;;;;;;5070802;28;20430;-82
2022/08/17 14:01:52;;;;;;;10.10;9.20;;;;;;;;;;5072389;28;21027;-82
2022/08/17 14:04:22;;;;;;;9.30;8.50;;;;;;;;;;5105380;28;20431;-83
2022/08/17 14:06:50;;;;;;;8.85;8.05;;;;;;;;;;5072898;28;20510;-83
2022/08/17 14:09:18;;;;;;;9.30;8.32;;;;;;;;;;5073272;28;20502;-82
2022/08/17 14:11:45;;;;;;;9.20;8.40;;;;;;;;;;5073401;28;20403;-83
2022/08/17 14:14:12;;;;;;;9.15;8.40;;;;;;;;;;5073242;28;20506;-83
2022/08/17 14:16:40;;;;;;;9.00;8.20;;;;;;;;;;5072697;28;20412;-83
2022/08/17 14:19:08;;;;;;;9.07;8.20;;;;;;;;;;5065094;28;20427;-84
2022/08/17 14:21:37;;;;;;;9.30;8.50;;;;;;;;;;5075085;28;20440;-84
2022/08/17 14:24:04;;;;;;;10.32;9.32;;;;;;;;;;5072851;28;20427;-83
2022/08/17 14:26:31;;;;;;;9.68;8.85;;;;;;;;;;5072475;28;20420;-82
2022/08/17 14:28:58;;;;;;;9.50;8.70;;;;;;;;;;5074260;28;20423;-83
2022/08/17 14:31:26;;;;;;;10.57;9.68;;;;;;;;;;5074025;28;20911;-83
2022/08/17 14:33:54;;;;;;;9.30;8.50;;;;;;;;;;5073414;28;20427;-84
2022/08/17 14:36:20;;;;;;;10.50;9.40;;;;;;;;;;5073101;28;20427;-82
2022/08/17 14:38:48;;;;;;;9.98;9.07;;;;;;;;;;5070320;28;20428;-81
2022/08/17 14:41:15;;;;;;;10.25;9.45;;;;;;;;;;5072135;28;20418;-83
2022/08/17 14:43:41;;;;;;;10.27;9.27;;;;;;;;;;5071217;28;20427;-84
2022/08/17 14:46:10;;;;;;;9.80;9.00;;;;;;;;;;5103598;28;20415;-85
2022/08/17 14:48:39;;;;;;;10.55;9.55;;;;;;;;;;5072142;28;20423;-82
2022/08/17 14:51:06;;;;;;;9.95;8.98;;;;;;;;;;5071753;28;20416;-81
2022/08/17 14:53:32;;;;;;;10.30;9.50;;;;;;;;;;5071335;28;20427;-86
2022/08/17 14:56:01;;;;;;;10.13;9.00;;;;;;;;;;5071898;28;20414;-82
2022/08/17 14:58:29;;;;;;;10.65;9.75;;;;;;;;;;5063045;28;20455;-83